Etusivu
METAR-TAF:

METAR-TAF

Lentoasemat :

Amman, Jordania

Leveyspiiri: 31-59N, Pituuspiiri: 035-59E, korkeus merenpinnasta: 767 m

Tämänhetkinen sää

Tämä raportti tehtiin 37 minuuttia sitten, kello 07.00 UTC
Tuuli 9 kn lännestä
Lämpötila 13°C
Kosteus 82%
Ilmanpaine 1017 hPa
Näkyvyys: 7000 m
Hajanaisia pilviä 2500 ft:n korkeudessa
Hajonneita pilviä 18000 ft:n korkeudessa

METAR: OJAM 020700Z 28009KT 7000 SCT025 BKN180 13/10 Q1017 NOSIG

Aika: 10:37 (07:37 UTC)

Sääennuste

Tämä raportti tehtiin 2 tuntia ja 37 minuuttia sitten, kello 05.00 UTC
Ennuste voimassa 02. päivästä klo 06 UTC - 03. päivään klo 12 UTC
Tuuli 10 kn lännestä
Näkyvyys: 5000 m
Muutamia pilviä 3500 ft:n korkeudessa
usvaa

TAF: OJAM 020500Z 0206/0312 26010KT 5000 HZ FEW035

Säähavainnot ja -ennusteet yli 4000 lentoasemalta (METAR- ja TAF-raportit).

Käytössä olevat sääasemat on merkitty karttaan keltaisilla ja punaisilla pisteillä.

Aseta hiiri pisteen päälle nähdäksesi sääaseman nimen.

Klikkaa sitten nähdäksesi säähavainnot ja -ennusteet.

Kartan vaihtaminen: klikkaa mustalla rastilla varustettuja vihreitä pisteitä, niin voit zoomata sisään; viivalla varustettua vihreää pistettä, niin voit zoomata ulos tai vihreitä nuolia, niin pääset viereisille kartoille.


METAR-TAF: